Rechercher aéroport 
image banner adimage banner adimage banner ad
image banner ad

9CL6 - Valley Children's Hospital

Situé à Madera, United States

ICAO - 9CL6, IATA -

Données fournies par Airmate  

Information générale

Coordonnées: N36°52'60" W119°48'6"
Élévation : 376 feet MSL.
Variation magnétique : 13° East
Voir autres Aéroports à California

Données opérationnelles

Special qualification required
Heure actuelle UTC:
Heure actuelle locale:
Météo à : KFAT - Fresno Yosemite Intl ( 14 km )
METAR: KFAT 251253Z 32004KT 10SM SCT120 BKN200 24/09 A2987 RMK AO2 SLP110 T02440089 $
TAF: KFAT 251120Z 2512/2612 00000KT P6SM FEW250 FM260100 31009KT P6SM SCT250 FM261100 00000KT P6SM SCT250
Voir NOTAMs / SUP AIP / TFR affectant cet aéroport [VIEW]
Fréquences de communication: [VIEW]

Pistes:

Coordonnées de l'aéroport

Adresse: Madera United States

Vue satellite de 9CL6